Time;durP1;ratioP1;P1;durP2;ratioP2;P2;SDS_P1;SDS_P2;PMS_P1;PMS_P2;Temp;Humidity;BMP_temperature;BMP_pressure;BME280_temperature;BME280_humidity;BME280_pressure;Samples;Min_cycle;Max_cycle;Signal;HPM_P1;HPM_P2
2023/10/16 00:01:03;;;;;;;5.90;1.98;;;4.70;1.00;;;;;;5031918;28;20770;-67
2023/10/16 00:03:31;;;;;;;6.00;1.40;;;4.70;1.00;;;;;;5031874;28;20395;-68
2023/10/16 00:05:56;;;;;;;5.18;1.35;;;4.80;1.00;;;;;;5031147;28;20410;-69
2023/10/16 00:08:22;;;;;;;5.07;1.20;;;4.80;1.00;;;;;;5050817;28;20417;-69
2023/10/16 00:10:55;;;;;;;5.38;1.42;;;4.80;1.00;;;;;;5045403;28;20781;-69
2023/10/16 00:13:26;;;;;;;7.30;1.75;;;4.80;1.00;;;;;;5031462;28;20398;-69
2023/10/16 00:15:54;;;;;;;5.70;1.40;;;4.80;1.00;;;;;;5031634;28;20401;-69
2023/10/16 00:18:22;;;;;;;5.00;1.60;;;4.80;1.00;;;;;;5031658;28;20426;-69
2023/10/16 00:20:49;;;;;;;6.13;1.02;;;4.80;1.00;;;;;;5031235;28;20395;-67
2023/10/16 00:23:15;;;;;;;5.35;1.48;;;4.80;1.00;;;;;;5039317;28;20373;-67
2023/10/16 00:25:43;;;;;;;5.60;1.67;;;4.80;1.00;;;;;;5051311;28;20480;-67
2023/10/16 00:28:09;;;;;;;6.60;1.60;;;4.90;1.00;;;;;;5050787;28;20802;-68
2023/10/16 00:30:40;;;;;;;5.30;0.90;;;4.80;1.00;;;;;;5051209;28;20393;-68
2023/10/16 00:33:06;;;;;;;5.85;1.60;;;4.80;1.00;;;;;;5051103;28;20751;-68
2023/10/16 00:35:32;;;;;;;4.65;1.38;;;4.70;1.00;;;;;;5051492;28;20397;-68
2023/10/16 00:37:58;;;;;;;5.05;1.58;;;4.90;1.00;;;;;;5050985;28;20413;-68
2023/10/16 00:40:33;;;;;;;5.07;1.30;;;4.90;1.00;;;;;;5050876;28;20758;-68
2023/10/16 00:43:12;;;;;;;4.63;0.95;;;4.80;1.00;;;;;;5050542;28;20394;-68
2023/10/16 00:45:59;;;;;;;5.80;1.40;;;4.90;1.00;;;;;;5050672;28;20844;-68
2023/10/16 00:48:24;;;;;;;5.50;1.30;;;4.80;1.00;;;;;;5050684;28;20806;-68
2023/10/16 00:50:51;;;;;;;5.68;1.33;;;4.80;1.00;;;;;;5050702;28;20378;-68
2023/10/16 00:53:26;;;;;;;5.32;1.13;;;4.80;1.00;;;;;;5050482;28;20386;-67
2023/10/16 00:55:55;;;;;;;5.03;1.40;;;4.80;1.00;;;;;;5050166;28;20793;-67
2023/10/16 00:58:21;;;;;;;6.57;1.88;;;4.70;1.00;;;;;;5050448;28;20393;-67
2023/10/16 01:00:50;;;;;;;7.80;1.70;;;4.80;1.00;;;;;;5032619;28;20461;-67
2023/10/16 01:03:16;;;;;;;4.95;1.30;;;4.80;1.00;;;;;;5030127;28;20421;-67
2023/10/16 01:05:42;;;;;;;4.95;1.27;;;4.70;1.00;;;;;;5022140;28;20420;-67
2023/10/16 01:08:11;;;;;;;7.10;2.30;;;4.50;1.00;;;;;;5024584;28;20426;-67
2023/10/16 01:10:41;;;;;;;4.50;1.10;;;4.40;1.00;;;;;;5030192;28;20940;-67
2023/10/16 01:13:13;;;;;;;4.50;1.10;;;4.40;1.00;;;;;;5029778;28;20395;-67
2023/10/16 01:15:52;;;;;;;4.73;1.40;;;4.40;1.00;;;;;;5030202;28;20462;-67
2023/10/16 01:18:18;;;;;;;5.40;1.40;;;4.50;1.00;;;;;;5029902;28;20399;-67
2023/10/16 01:20:48;;;;;;;6.90;1.88;;;4.50;1.00;;;;;;5030034;28;20486;-68
2023/10/16 01:23:25;;;;;;;4.47;1.08;;;4.30;1.00;;;;;;5020756;28;20426;-68
2023/10/16 01:25:51;;;;;;;5.70;1.13;;;4.30;1.00;;;;;;5024778;28;20400;-68
2023/10/16 01:28:18;;;;;;;5.60;1.10;;;4.20;1.00;;;;;;5011503;28;20737;-68
2023/10/16 01:30:49;;;;;;;5.20;1.10;;;4.30;1.00;;;;;;5028290;28;20411;-68
2023/10/16 01:33:19;;;;;;;5.30;1.00;;;4.20;1.00;;;;;;5028833;28;20422;-68
2023/10/16 01:35:48;;;;;;;7.78;1.40;;;4.30;1.00;;;;;;5029134;28;20400;-68
2023/10/16 01:38:17;;;;;;;4.47;1.08;;;4.30;1.00;;;;;;5029478;28;20403;-68
2023/10/16 01:40:48;;;;;;;4.50;0.70;;;4.30;1.00;;;;;;5017090;28;20418;-68
2023/10/16 01:43:14;;;;;;;5.80;1.35;;;4.30;1.00;;;;;;5029510;28;20774;-68
2023/10/16 01:45:49;;;;;;;4.30;0.90;;;4.10;1.00;;;;;;5029750;28;20396;-68
2023/10/16 01:48:19;;;;;;;6.50;1.40;;;4.20;1.00;;;;;;5029393;28;20409;-68
2023/10/16 01:50:52;;;;;;;6.07;1.25;;;4.10;1.00;;;;;;5013768;28;20399;-68
2023/10/16 01:53:20;;;;;;;5.10;1.40;;;4.10;1.00;;;;;;5029876;28;20391;-68
2023/10/16 01:55:55;;;;;;;4.35;1.00;;;4.00;1.00;;;;;;5013919;28;20709;-68
2023/10/16 01:58:25;;;;;;;7.07;0.95;;;4.00;1.00;;;;;;5028238;28;20485;-68
2023/10/16 02:00:54;;;;;;;4.50;0.93;;;4.10;1.00;;;;;;5029649;28;20497;-68
2023/10/16 02:03:22;;;;;;;5.93;1.70;;;4.00;1.00;;;;;;5041212;28;20443;-68
2023/10/16 02:05:48;;;;;;;4.53;1.40;;;4.00;1.00;;;;;;5049783;28;20409;-68
2023/10/16 02:08:14;;;;;;;4.80;1.53;;;4.00;1.00;;;;;;5049467;28;20506;-68
2023/10/16 02:10:41;;;;;;;8.50;2.53;;;3.90;1.00;;;;;;5049406;28;20388;-68
2023/10/16 02:13:08;;;;;;;10.10;2.30;;;4.00;1.00;;;;;;5049497;28;20389;-68
2023/10/16 02:15:38;;;;;;;4.80;1.10;;;4.00;1.00;;;;;;5037415;28;20422;-68
2023/10/16 02:18:06;;;;;;;6.07;1.80;;;3.90;1.00;;;;;;5029753;28;20453;-68
2023/10/16 02:20:36;;;;;;;4.20;0.90;;;3.80;1.00;;;;;;5030224;28;20437;-68
2023/10/16 02:23:07;;;;;;;4.75;1.40;;;3.70;1.00;;;;;;5030188;28;20478;-68
2023/10/16 02:25:35;;;;;;;6.63;1.23;;;3.60;1.00;;;;;;5030052;28;20517;-68
2023/10/16 02:28:01;;;;;;;4.22;0.90;;;3.70;1.00;;;;;;5029809;28;20970;-68
2023/10/16 02:32:59;;;;;;;3.80;0.70;;;3.70;1.00;;;;;;5029684;28;20391;-68
2023/10/16 02:35:27;;;;;;;4.93;0.70;;;3.80;1.00;;;;;;5029261;28;20824;-68
2023/10/16 02:37:57;;;;;;;4.57;0.90;;;3.80;1.00;;;;;;5029147;28;20407;-68
2023/10/16 02:40:26;;;;;;;5.05;1.30;;;3.60;1.00;;;;;;5029307;28;20398;-68
2023/10/16 02:42:56;;;;;;;4.80;1.10;;;3.70;1.00;;;;;;5029059;28;20399;-68
2023/10/16 02:45:24;;;;;;;12.15;1.60;;;3.60;1.00;;;;;;5028401;28;20900;-68
2023/10/16 02:47:51;;;;;;;5.10;1.20;;;3.60;1.00;;;;;;5032287;28;20398;-68
2023/10/16 02:50:16;;;;;;;4.43;1.17;;;3.60;1.00;;;;;;5032349;28;20395;-68
2023/10/16 02:52:42;;;;;;;5.00;1.20;;;3.60;1.00;;;;;;5033640;28;20466;-68
2023/10/16 02:55:10;;;;;;;5.80;1.20;;;3.80;1.00;;;;;;5032417;28;20394;-68
2023/10/16 02:57:40;;;;;;;5.40;1.20;;;3.80;1.00;;;;;;5031757;28;20430;-68
2023/10/16 03:00:36;;;;;;;5.22;1.50;;;3.90;1.00;;;;;;5032220;28;20366;-68
2023/10/16 03:03:05;;;;;;;4.65;1.02;;;3.90;1.00;;;;;;5030988;28;20460;-68
2023/10/16 03:05:31;;;;;;;7.03;1.95;;;3.80;1.00;;;;;;5032216;28;20390;-68
2023/10/16 03:07:56;;;;;;;4.90;1.60;;;3.70;1.00;;;;;;5031429;28;21016;-68
2023/10/16 03:10:22;;;;;;;4.97;1.00;;;3.70;1.00;;;;;;5031770;28;20508;-68
2023/10/16 03:12:51;;;;;;;6.07;1.87;;;3.70;1.00;;;;;;5032027;28;20395;-68
2023/10/16 03:15:20;;;;;;;4.80;1.25;;;3.70;1.00;;;;;;5032109;28;20383;-68
2023/10/16 03:17:50;;;;;;;6.00;1.13;;;3.70;1.00;;;;;;5031664;28;20430;-68
2023/10/16 03:20:20;;;;;;;4.60;1.00;;;3.60;1.00;;;;;;5031900;28;20870;-68
2023/10/16 03:22:50;;;;;;;4.60;1.40;;;3.50;1.00;;;;;;5031518;28;20383;-68
2023/10/16 03:25:30;;;;;;;6.10;1.80;;;3.50;1.00;;;;;;5029743;28;20395;-68
2023/10/16 03:27:55;;;;;;;4.65;1.27;;;3.40;1.00;;;;;;5028281;28;20498;-68
2023/10/16 03:30:26;;;;;;;4.17;0.77;;;3.40;1.00;;;;;;5031818;28;20482;-68
2023/10/16 03:32:53;;;;;;;6.40;1.30;;;3.40;1.00;;;;;;5029132;28;20398;-68
2023/10/16 03:35:25;;;;;;;4.68;1.63;;;3.50;1.00;;;;;;5031250;28;20405;-68
2023/10/16 03:37:54;;;;;;;5.33;0.87;;;3.60;1.00;;;;;;5028859;28;20423;-68
2023/10/16 03:40:20;;;;;;;6.13;1.40;;;3.60;1.00;;;;;;5031541;28;20722;-68
2023/10/16 03:42:46;;;;;;;4.97;1.10;;;3.50;1.00;;;;;;5031457;28;20403;-68
2023/10/16 03:45:13;;;;;;;5.00;1.60;;;3.40;1.00;;;;;;5029936;28;20411;-68
2023/10/16 03:47:39;;;;;;;5.95;1.25;;;3.50;1.00;;;;;;5031460;28;20411;-68
2023/10/16 03:50:06;;;;;;;4.37;1.17;;;3.60;1.00;;;;;;5031820;28;20399;-68
2023/10/16 03:52:33;;;;;;;5.18;1.65;;;3.60;1.00;;;;;;5030462;28;20422;-68
2023/10/16 03:55:12;;;;;;;4.90;1.10;;;3.50;1.00;;;;;;5031645;28;20395;-68
2023/10/16 03:57:39;;;;;;;5.35;2.03;;;3.40;1.00;;;;;;5025613;28;20431;-68
2023/10/16 04:00:15;;;;;;;4.50;1.38;;;3.50;1.00;;;;;;5030551;28;20461;-68
2023/10/16 04:02:41;;;;;;;4.40;1.10;;;3.50;1.00;;;;;;5036135;28;20459;-68
2023/10/16 04:05:27;;;;;;;4.63;1.30;;;3.50;1.00;;;;;;5039017;28;20877;-68
2023/10/16 04:07:53;;;;;;;7.30;1.30;;;3.50;1.00;;;;;;5030684;28;20415;-68
2023/10/16 04:10:27;;;;;;;5.30;1.40;;;3.40;1.00;;;;;;5031048;28;20398;-67
2023/10/16 04:12:53;;;;;;;6.30;1.50;;;3.40;1.00;;;;;;5028460;28;20403;-67
2023/10/16 04:15:34;;;;;;;4.50;0.98;;;3.40;1.00;;;;;;5030383;28;20430;-67
2023/10/16 04:18:04;;;;;;;5.10;1.60;;;3.40;1.00;;;;;;5029328;28;20466;-67
2023/10/16 04:20:43;;;;;;;6.50;1.40;;;3.30;1.00;;;;;;5028345;28;20953;-67
2023/10/16 04:23:37;;;;;;;5.00;1.30;;;3.30;1.00;;;;;;5030456;28;20387;-68
2023/10/16 04:31:44;;;;;;;4.40;1.17;;;3.20;1.00;;;;;;5027735;28;20528;-68
2023/10/16 04:51:01;;;;;;;5.90;2.30;;;3.00;1.00;;;;;;5028927;28;20881;-72
2023/10/16 04:53:13;;;;;;;4.30;1.00;;;3.00;1.00;;;;;;5028115;28;20403;-73
2023/10/16 06:14:21;;;;;;;6.15;1.42;;;3.60;1.00;;;;;;5028840;28;20451;-71
2023/10/16 06:16:50;;;;;;;8.47;1.40;;;3.80;1.00;;;;;;5008941;28;20505;-71
2023/10/16 06:19:17;;;;;;;4.17;1.00;;;4.10;1.00;;;;;;5027258;28;20383;-71
2023/10/16 06:21:48;;;;;;;4.30;0.90;;;4.10;1.00;;;;;;5031276;28;20398;-71
2023/10/16 06:24:25;;;;;;;4.80;1.27;;;4.20;1.00;;;;;;5030849;28;20501;-71
2023/10/16 06:26:59;;;;;;;5.25;1.25;;;4.30;1.00;;;;;;5032770;28;20403;-71
2023/10/16 06:29:34;;;;;;;6.10;2.40;;;4.60;1.00;;;;;;5030966;28;20456;-71
2023/10/16 06:32:06;;;;;;;6.47;2.37;;;4.90;1.00;;;;;;5032825;28;20383;-71
2023/10/16 06:34:33;;;;;;;4.70;1.40;;;5.70;1.00;;;;;;5031485;28;20893;-71
2023/10/16 06:36:59;;;;;;;6.17;1.13;;;6.60;1.00;;;;;;5029368;28;20431;-71
2023/10/16 06:39:35;;;;;;;5.75;2.15;;;7.50;1.00;;;;;;5031494;28;20403;-71
2023/10/16 06:42:02;;;;;;;6.38;1.80;;;8.00;1.00;;;;;;5028830;28;20729;-72
2023/10/16 06:44:28;;;;;;;5.10;1.30;;;8.90;1.00;;;;;;5032827;28;20390;-72
2023/10/16 06:46:58;;;;;;;6.63;1.90;;;9.90;16.90;;;;;;5028765;28;20398;-72
2023/10/16 06:49:37;;;;;;;5.95;2.30;;;10.90;55.20;;;;;;5030733;28;20407;-72
2023/10/16 06:52:06;;;;;;;5.90;2.03;;;12.30;1.00;;;;;;5029347;28;20441;-72
2023/10/16 06:54:37;;;;;;;7.65;2.22;;;13.10;99.90;;;;;;5031879;28;20474;-70
2023/10/16 06:57:12;;;;;;;6.95;1.75;;;13.90;99.90;;;;;;5033413;28;20841;-70
2023/10/16 06:59:42;;;;;;;6.82;2.22;;;14.10;99.90;;;;;;5030137;28;20406;-70
2023/10/16 07:02:15;;;;;;;5.68;1.88;;;14.50;99.90;;;;;;5031180;28;20409;-70
2023/10/16 07:04:41;;;;;;;6.32;2.15;;;14.60;99.90;;;;;;5029694;28;20397;-70
2023/10/16 07:07:14;;;;;;;6.80;2.57;;;14.60;99.90;;;;;;5032286;28;20460;-71
2023/10/16 07:09:51;;;;;;;6.80;2.50;;;15.50;99.90;;;;;;5030929;28;20402;-71
2023/10/16 07:12:18;;;;;;;7.43;2.13;;;15.70;99.90;;;;;;5034825;28;20391;-72
2023/10/16 07:15:01;;;;;;;7.90;2.70;;;16.40;99.90;;;;;;5028162;28;20421;-72
2023/10/16 07:17:30;;;;;;;8.20;2.33;;;16.30;99.90;;;;;;5018467;28;20426;-72
2023/10/16 07:19:59;;;;;;;6.40;2.30;;;16.30;99.90;;;;;;5032636;28;20431;-72
2023/10/16 07:22:31;;;;;;;7.00;2.27;;;17.30;99.90;;;;;;5031430;28;20406;-75
2023/10/16 07:27:45;;;;;;;8.20;2.30;;;18.10;99.90;;;;;;5030685;28;20753;-75
2023/10/16 07:30:21;;;;;;;8.05;2.90;;;17.70;99.90;;;;;;5030376;28;20811;-75
2023/10/16 07:32:48;;;;;;;7.40;2.30;;;17.70;99.90;;;;;;5011924;28;20443;-75
2023/10/16 07:35:18;;;;;;;6.70;2.63;;;17.60;99.90;;;;;;5023471;28;20385;-75
2023/10/16 07:37:48;;;;;;;8.80;2.75;;;16.50;99.90;;;;;;5031406;28;20431;-75
2023/10/16 07:40:15;;;;;;;6.90;2.53;;;16.40;99.90;;;;;;5025280;28;20400;-75
2023/10/16 07:42:41;;;;;;;7.47;2.65;;;16.40;99.90;;;;;;5044116;28;20918;-75
2023/10/16 07:45:07;;;;;;;6.57;2.40;;;17.10;99.90;;;;;;5042318;28;20387;-76
2023/10/16 07:47:33;;;;;;;6.88;2.78;;;17.20;99.90;;;;;;5042504;28;20407;-76
2023/10/16 07:50:00;;;;;;;7.63;2.90;;;17.80;99.90;;;;;;5049327;28;20390;-76
2023/10/16 07:52:28;;;;;;;8.60;2.60;;;17.70;99.90;;;;;;5051471;28;20947;-76
2023/10/16 07:54:54;;;;;;;10.20;2.63;;;18.00;99.90;;;;;;5044996;28;20383;-75
2023/10/16 07:57:21;;;;;;;6.97;2.30;;;17.90;99.90;;;;;;5030983;28;20912;-76
2023/10/16 07:59:47;;;;;;;8.20;2.63;;;17.70;99.90;;;;;;5027908;28;20401;-76
2023/10/16 08:02:17;;;;;;;6.30;2.10;;;17.60;99.90;;;;;;5029854;28;20727;-76
2023/10/16 08:04:43;;;;;;;9.23;2.83;;;18.10;99.90;;;;;;5030686;28;20530;-76
2023/10/16 08:07:16;;;;;;;8.50;2.42;;;18.80;99.90;;;;;;5029213;28;20466;-76
2023/10/16 08:12:20;;;;;;;10.05;2.75;;;20.80;99.90;;;;;;5030786;28;20403;-76
2023/10/16 08:14:46;;;;;;;11.80;2.93;;;21.40;99.90;;;;;;5030393;28;20430;-77
2023/10/16 08:17:16;;;;;;;6.47;2.60;;;21.70;99.90;;;;;;5031111;28;20451;-77
2023/10/16 08:19:41;;;;;;;6.53;2.10;;;22.20;99.90;;;;;;5030102;28;20411;-77
2023/10/16 08:22:07;;;;;;;7.97;2.67;;;21.20;99.90;;;;;;5029811;28;20418;-77
2023/10/16 08:24:34;;;;;;;9.90;2.47;;;20.40;99.90;;;;;;5011804;28;20937;-76
2023/10/16 08:27:19;;;;;;;5.93;2.20;;;20.90;99.90;;;;;;5010920;28;20393;-77
2023/10/16 08:29:54;;;;;;;6.20;2.38;;;20.80;99.90;;;;;;5010769;28;20453;-75
2023/10/16 08:35:17;;;;;;;7.57;2.20;;;21.40;99.90;;;;;;5011451;28;20742;-77
2023/10/16 08:37:43;;;;;;;9.10;2.42;;;20.40;99.90;;;;;;5010673;28;20439;-77
2023/10/16 08:40:19;;;;;;;10.02;2.42;;;19.50;99.90;;;;;;5019601;28;20403;-71
2023/10/16 08:43:00;;;;;;;6.70;2.33;;;19.50;99.90;;;;;;5027372;28;20391;-68
2023/10/16 08:45:29;;;;;;;5.93;1.83;;;19.70;99.90;;;;;;5027237;28;20410;-70
2023/10/16 08:47:56;;;;;;;9.50;2.80;;;18.80;99.90;;;;;;5028208;28;20724;-70
2023/10/16 08:50:43;;;;;;;7.40;2.88;;;18.20;99.90;;;;;;5029064;28;21138;-70
2023/10/16 08:55:56;;;;;;;6.83;1.97;;;19.00;99.90;;;;;;5010562;28;20771;-71
2023/10/16 08:58:22;;;;;;;8.60;2.20;;;19.60;99.90;;;;;;5010428;28;20393;-71
2023/10/16 09:00:49;;;;;;;5.90;1.70;;;19.60;99.90;;;;;;5026771;28;20412;-71
2023/10/16 09:03:19;;;;;;;5.90;1.90;;;19.80;99.90;;;;;;5029294;28;20466;-71
2023/10/16 09:05:44;;;;;;;7.18;2.70;;;20.20;99.90;;;;;;5029789;28;20872;-71
2023/10/16 09:08:14;;;;;;;6.70;2.00;;;19.90;99.90;;;;;;5029814;28;20419;-71
2023/10/16 09:10:41;;;;;;;6.30;2.10;;;20.00;99.90;;;;;;5028403;28;20400;-71
2023/10/16 09:13:13;;;;;;;6.50;2.03;;;19.80;99.90;;;;;;5026526;28;20869;-71
2023/10/16 09:15:45;;;;;;;7.07;2.30;;;19.60;99.90;;;;;;5027254;28;20395;-71
2023/10/16 09:18:14;;;;;;;8.37;2.33;;;19.40;99.90;;;;;;5008550;28;20490;-71
2023/10/16 09:20:41;;;;;;;6.30;2.00;;;19.10;99.90;;;;;;5010490;28;20787;-71
2023/10/16 09:23:08;;;;;;;6.40;2.15;;;19.50;99.90;;;;;;5010093;28;20471;-71
2023/10/16 09:25:33;;;;;;;6.68;2.13;;;19.10;99.90;;;;;;5010824;28;20464;-71
2023/10/16 09:27:59;;;;;;;7.60;2.13;;;19.70;99.90;;;;;;5009584;28;20488;-71
2023/10/16 09:30:28;;;;;;;6.97;2.05;;;19.40;99.90;;;;;;5024503;28;21475;-71
2023/10/16 09:32:54;;;;;;;5.97;1.83;;;19.70;99.90;;;;;;5028814;28;20441;-71
2023/10/16 09:35:30;;;;;;;6.70;2.23;;;19.70;99.90;;;;;;5029378;28;20398;-71
2023/10/16 09:38:17;;;;;;;5.72;1.65;;;19.50;99.90;;;;;;5029544;28;20422;-71
2023/10/16 09:40:45;;;;;;;5.90;1.97;;;19.60;99.90;;;;;;5027196;28;20912;-71
2023/10/16 09:43:24;;;;;;;6.47;2.07;;;19.70;99.90;;;;;;5028822;28;20386;-71
2023/10/16 09:46:33;;;;;;;5.60;1.73;;;20.20;99.90;;;;;;5029362;28;20395;-71
2023/10/16 09:48:40;;;;;;;6.18;2.00;;;20.50;99.90;;;;;;5029396;28;20840;-71
2023/10/16 09:51:09;;;;;;;7.63;2.10;;;20.50;99.90;;;;;;5029522;28;20422;-71
2023/10/16 09:53:35;;;;;;;9.00;2.67;;;20.50;99.90;;;;;;5027596;28;20881;-71
2023/10/16 09:56:02;;;;;;;6.10;2.00;;;20.80;99.90;;;;;;5028424;28;20785;-71
2023/10/16 09:58:33;;;;;;;6.40;2.10;;;21.20;99.90;;;;;;5029250;28;20456;-68
2023/10/16 10:01:06;;;;;;;5.67;1.60;;;21.70;99.90;;;;;;5029597;28;20395;-68
2023/10/16 10:03:35;;;;;;;8.30;2.10;;;21.90;99.90;;;;;;5029594;28;20683;-70
2023/10/16 10:06:19;;;;;;;8.10;2.72;;;21.50;99.90;;;;;;5029635;28;20398;-69
2023/10/16 10:11:57;;;;;;;5.40;1.40;;;21.20;99.90;;;;;;5029224;28;20407;-68
2023/10/16 10:14:48;;;;;;;5.70;1.90;;;21.20;99.90;;;;;;5029491;28;20414;-70
2023/10/16 10:17:19;;;;;;;7.05;1.70;;;21.80;99.90;;;;;;5028647;28;20422;-70
2023/10/16 10:19:54;;;;;;;6.73;2.10;;;22.00;99.90;;;;;;5029348;28;20387;-71
2023/10/16 10:22:27;;;;;;;6.90;2.38;;;20.40;99.90;;;;;;5027914;28;20391;-71
2023/10/16 10:25:26;;;;;;;6.30;2.15;;;19.50;99.90;;;;;;5025986;28;20431;-70
2023/10/16 10:28:09;;;;;;;6.40;1.95;;;19.60;99.90;;;;;;5026496;28;20889;-70
2023/10/16 10:30:43;;;;;;;5.40;1.60;;;20.40;99.90;;;;;;5027442;28;20893;-70
2023/10/16 10:33:10;;;;;;;11.00;2.10;;;20.80;99.90;;;;;;5029069;28;20410;-70
2023/10/16 10:35:39;;;;;;;6.80;2.00;;;20.80;99.90;;;;;;5028739;28;20881;-71
2023/10/16 10:38:21;;;;;;;6.25;1.60;;;20.10;99.90;;;;;;5027808;28;20427;-71
2023/10/16 10:41:12;;;;;;;5.00;1.08;;;20.00;99.90;;;;;;5029163;28;20387;-71
2023/10/16 10:43:48;;;;;;;7.97;1.77;;;20.70;99.90;;;;;;5029332;28;20391;-71
2023/10/16 10:46:20;;;;;;;5.40;1.20;;;21.50;99.90;;;;;;5027188;28;20446;-71
2023/10/16 10:48:46;;;;;;;5.80;1.80;;;21.30;99.90;;;;;;5027174;28;20458;-71
2023/10/16 10:51:15;;;;;;;5.93;1.80;;;21.30;99.90;;;;;;5028633;28;20763;-71
2023/10/16 10:53:55;;;;;;;6.45;1.80;;;21.80;99.90;;;;;;5026805;28;20517;-71
2023/10/16 10:56:21;;;;;;;6.18;1.85;;;21.70;99.90;;;;;;5027479;28;20434;-71
2023/10/16 10:58:47;;;;;;;6.35;1.75;;;21.60;99.90;;;;;;5028403;28;20889;-71
2023/10/16 11:01:16;;;;;;;8.88;1.67;;;21.20;99.90;;;;;;5028556;28;20399;-71
2023/10/16 11:03:46;;;;;;;6.77;1.97;;;20.70;99.90;;;;;;5028729;28;20391;-75
2023/10/16 11:06:18;;;;;;;8.27;2.30;;;20.30;99.90;;;;;;5026849;28;20400;-76
2023/10/16 11:08:47;;;;;;;6.83;2.37;;;20.30;99.90;;;;;;5024845;28;20943;-75
2023/10/16 11:11:14;;;;;;;7.70;2.30;;;20.20;99.90;;;;;;5030127;28;20395;-75
2023/10/16 11:13:49;;;;;;;7.13;2.28;;;19.50;99.90;;;;;;5032677;28;20398;-75
2023/10/16 11:16:15;;;;;;;7.32;2.70;;;18.90;99.90;;;;;;5031117;28;20482;-75
2023/10/16 11:18:57;;;;;;;6.30;1.90;;;18.50;99.90;;;;;;5030050;28;20493;-75
2023/10/16 11:21:25;;;;;;;9.30;3.57;;;18.30;99.90;;;;;;5031685;28;20461;-76
2023/10/16 11:23:55;;;;;;;6.87;2.20;;;17.70;99.90;;;;;;5031812;28;20402;-75
2023/10/16 11:26:23;;;;;;;7.55;2.15;;;16.90;99.90;;;;;;5031243;28;20571;-75
2023/10/16 11:28:48;;;;;;;5.70;1.60;;;16.40;99.90;;;;;;5031760;28;20407;-75
2023/10/16 11:31:17;;;;;;;12.15;2.20;;;16.00;99.90;;;;;;5032374;28;20399;-75
2023/10/16 11:33:44;;;;;;;6.20;1.85;;;15.80;99.90;;;;;;5032911;28;20463;-75
2023/10/16 11:36:16;;;;;;;6.40;2.10;;;15.40;99.90;;;;;;5046190;28;20507;-75
2023/10/16 11:38:44;;;;;;;6.35;1.52;;;15.40;99.90;;;;;;5031457;28;20395;-75
2023/10/16 11:41:16;;;;;;;5.63;1.60;;;15.70;99.90;;;;;;5032198;28;20384;-76
2023/10/16 11:43:51;;;;;;;5.53;1.60;;;15.80;99.90;;;;;;5031505;28;20735;-75
2023/10/16 11:46:28;;;;;;;6.65;1.95;;;15.90;99.90;;;;;;5042945;28;20389;-75
2023/10/16 11:48:58;;;;;;;7.15;1.75;;;15.90;99.90;;;;;;5011905;28;20401;-75
2023/10/16 11:51:25;;;;;;;7.20;1.90;;;15.70;99.90;;;;;;5026872;28;20820;-75
2023/10/16 11:53:57;;;;;;;14.30;2.78;;;15.70;99.90;;;;;;5014435;28;20396;-75
2023/10/16 11:56:23;;;;;;;6.80;1.60;;;16.10;99.90;;;;;;5042855;28;21161;-75
2023/10/16 11:58:53;;;;;;;7.22;1.30;;;16.20;99.90;;;;;;5051505;28;20892;-73
2023/10/16 12:01:19;;;;;;;6.75;1.42;;;15.80;99.90;;;;;;5038851;28;20777;-73
2023/10/16 12:03:44;;;;;;;5.00;1.27;;;15.80;99.90;;;;;;5031694;28;20408;-74
2023/10/16 12:06:13;;;;;;;5.50;1.40;;;15.90;99.90;;;;;;5029490;28;20391;-76
2023/10/16 12:08:41;;;;;;;5.18;1.60;;;16.00;99.90;;;;;;5029494;28;20496;-76
2023/10/16 12:11:07;;;;;;;6.10;1.30;;;16.00;99.90;;;;;;5030695;28;20383;-74
2023/10/16 12:13:33;;;;;;;15.88;1.60;;;15.80;99.90;;;;;;5030783;28;20398;-74
2023/10/16 12:15:59;;;;;;;6.30;1.55;;;16.00;99.90;;;;;;5031214;28;21055;-74
2023/10/16 12:18:28;;;;;;;9.37;1.30;;;15.60;99.90;;;;;;5030355;28;21578;-73
2023/10/16 12:20:54;;;;;;;5.38;1.40;;;15.80;99.90;;;;;;5030076;28;20757;-73
2023/10/16 12:23:20;;;;;;;6.30;1.10;;;15.80;99.90;;;;;;5030097;28;20486;-73
2023/10/16 12:25:46;;;;;;;4.70;1.15;;;15.80;99.90;;;;;;5030355;28;20407;-74
2023/10/16 12:28:12;;;;;;;5.20;1.10;;;15.90;99.90;;;;;;5030624;28;20403;-73
2023/10/16 12:30:38;;;;;;;8.90;1.23;;;15.90;99.90;;;;;;5031209;28;20397;-74
2023/10/16 12:33:06;;;;;;;4.73;1.00;;;16.10;99.90;;;;;;5029032;28;20904;-76
2023/10/16 12:35:34;;;;;;;5.40;1.20;;;16.10;99.90;;;;;;5029785;28;20805;-71
2023/10/16 12:38:04;;;;;;;4.80;0.90;;;16.10;99.90;;;;;;5026891;28;20820;-70
2023/10/16 12:40:39;;;;;;;4.70;0.75;;;16.00;99.90;;;;;;5032911;28;20401;-75
2023/10/16 12:43:08;;;;;;;5.20;1.27;;;16.00;99.90;;;;;;5029489;28;20538;-75
2023/10/16 12:45:34;;;;;;;5.50;1.02;;;16.00;99.90;;;;;;5028617;28;20474;-74
2023/10/16 12:48:00;;;;;;;5.30;1.10;;;16.00;99.90;;;;;;5030139;28;20395;-74
2023/10/16 12:50:27;;;;;;;4.67;0.80;;;16.00;99.90;;;;;;5026370;28;20699;-74
2023/10/16 12:52:58;;;;;;;4.80;0.80;;;16.00;99.90;;;;;;5029732;28;20719;-74
2023/10/16 12:55:24;;;;;;;5.22;0.90;;;16.10;99.90;;;;;;5027526;28;20399;-72
2023/10/16 12:57:50;;;;;;;4.80;0.80;;;15.50;99.90;;;;;;5031572;28;20418;-72
2023/10/16 13:00:26;;;;;;;4.80;0.60;;;15.30;99.90;;;;;;5029633;28;20414;-72
2023/10/16 13:02:52;;;;;;;4.90;1.10;;;15.40;99.90;;;;;;5030488;28;20738;-72
2023/10/16 13:05:19;;;;;;;4.80;1.10;;;15.70;99.90;;;;;;5028729;28;20405;-72
2023/10/16 13:07:47;;;;;;;4.50;0.80;;;15.70;99.90;;;;;;5030220;28;20808;-72
2023/10/16 13:10:20;;;;;;;7.90;1.50;;;15.60;99.90;;;;;;5029940;28;20399;-72
2023/10/16 13:12:47;;;;;;;6.13;1.40;;;15.60;99.90;;;;;;5029178;28;20421;-72
2023/10/16 13:15:24;;;;;;;8.50;1.30;;;15.20;99.90;;;;;;5028709;28;20395;-72
2023/10/16 13:17:50;;;;;;;6.30;1.23;;;15.10;99.90;;;;;;5030048;28;20423;-72
2023/10/16 13:20:18;;;;;;;6.53;1.80;;;15.40;99.90;;;;;;5029909;28;20399;-72
2023/10/16 13:22:49;;;;;;;7.50;1.40;;;15.70;99.90;;;;;;5029271;28;20399;-72
2023/10/16 13:25:18;;;;;;;5.30;1.15;;;15.90;99.90;;;;;;5030179;28;20468;-72
2023/10/16 13:27:44;;;;;;;4.70;0.77;;;16.10;99.90;;;;;;5027940;28;20955;-72
2023/10/16 13:30:11;;;;;;;5.00;1.20;;;16.20;99.90;;;;;;5017137;28;20393;-72
2023/10/16 13:32:41;;;;;;;6.70;1.10;;;16.10;99.90;;;;;;5010474;28;20740;-73
2023/10/16 13:35:12;;;;;;;5.20;1.40;;;16.10;99.90;;;;;;5010562;28;20399;-72
2023/10/16 13:37:42;;;;;;;5.05;0.90;;;16.10;99.90;;;;;;5024600;28;20482;-72
2023/10/16 13:40:20;;;;;;;8.30;1.10;;;16.00;99.90;;;;;;5029943;28;20390;-72
2023/10/16 13:42:49;;;;;;;6.30;0.85;;;16.00;99.90;;;;;;5010378;28;20406;-73
2023/10/16 13:45:16;;;;;;;4.90;1.20;;;15.70;99.90;;;;;;5010180;28;20917;-73
2023/10/16 13:47:43;;;;;;;4.30;0.80;;;15.70;99.90;;;;;;5008334;28;20416;-73
2023/10/16 13:50:13;;;;;;;5.25;1.10;;;15.80;99.90;;;;;;5008827;28;20431;-72
2023/10/16 13:52:42;;;;;;;4.40;0.60;;;15.80;99.90;;;;;;5008726;28;20408;-72
2023/10/16 13:55:12;;;;;;;5.43;1.33;;;15.70;99.90;;;;;;5010117;28;20404;-72
2023/10/16 13:57:42;;;;;;;7.30;1.10;;;15.60;99.90;;;;;;5010240;28;20511;-72
2023/10/16 14:03:08;;;;;;;8.80;1.40;;;15.20;99.90;;;;;;5019696;28;20394;-72
2023/10/16 14:05:41;;;;;;;6.75;1.00;;;15.30;99.90;;;;;;5028611;28;20434;-73
2023/10/16 14:08:09;;;;;;;7.50;1.30;;;15.30;99.90;;;;;;5029743;28;20419;-73
2023/10/16 14:10:36;;;;;;;5.00;1.15;;;15.40;99.90;;;;;;5030496;28;20391;-73
2023/10/16 14:13:10;;;;;;;4.50;0.90;;;15.40;99.90;;;;;;5029784;28;20404;-73
2023/10/16 14:15:41;;;;;;;4.60;0.90;;;15.40;99.90;;;;;;5029859;28;20395;-73
2023/10/16 14:18:13;;;;;;;5.00;0.90;;;15.40;99.90;;;;;;5029024;28;20422;-73
2023/10/16 14:20:39;;;;;;;4.88;0.90;;;15.40;99.90;;;;;;5029705;28;20410;-72
2023/10/16 14:23:10;;;;;;;5.20;0.98;;;15.10;99.90;;;;;;5030314;28;20398;-72
2023/10/16 14:25:41;;;;;;;4.93;1.20;;;15.10;99.90;;;;;;5029585;28;20500;-73
2023/10/16 14:28:27;;;;;;;7.50;1.60;;;15.00;99.90;;;;;;5029964;28;20834;-73
2023/10/16 14:30:54;;;;;;;6.20;0.90;;;15.20;99.90;;;;;;5032297;28;20379;-74
2023/10/16 14:33:28;;;;;;;5.00;0.60;;;15.20;99.90;;;;;;5032446;28;20402;-73
2023/10/16 14:35:58;;;;;;;10.50;1.40;;;15.20;99.90;;;;;;5027831;28;20456;-73
2023/10/16 14:38:26;;;;;;;4.78;0.98;;;15.20;99.90;;;;;;5027625;28;20422;-73
2023/10/16 14:40:55;;;;;;;4.50;0.70;;;15.20;99.90;;;;;;5027687;28;20399;-72
2023/10/16 14:43:22;;;;;;;4.60;0.60;;;15.00;99.90;;;;;;5029319;28;20482;-73
2023/10/16 14:45:48;;;;;;;5.10;0.90;;;14.80;99.90;;;;;;5033166;28;20387;-73
2023/10/16 14:48:15;;;;;;;4.90;1.00;;;14.50;99.90;;;;;;5033119;28;20399;-73
2023/10/16 14:50:41;;;;;;;4.50;0.60;;;14.60;99.90;;;;;;5032999;28;20402;-73
2023/10/16 14:53:09;;;;;;;5.70;0.80;;;14.70;99.90;;;;;;5033477;28;20798;-73
2023/10/16 14:55:35;;;;;;;4.40;0.60;;;14.70;99.90;;;;;;5033282;28;20391;-73
2023/10/16 14:58:02;;;;;;;4.67;0.60;;;14.70;99.90;;;;;;5031739;28;20419;-73
2023/10/16 15:00:32;;;;;;;4.70;0.70;;;14.50;99.90;;;;;;5032124;28;20387;-72
2023/10/16 15:03:03;;;;;;;4.40;0.70;;;14.30;99.90;;;;;;5031332;28;20399;-74
2023/10/16 15:05:28;;;;;;;4.70;0.80;;;14.10;99.90;;;;;;5032273;28;20986;-74
2023/10/16 15:07:58;;;;;;;4.70;0.90;;;14.00;99.90;;;;;;5031887;28;20430;-73
2023/10/16 15:10:25;;;;;;;5.15;0.95;;;13.90;99.90;;;;;;5032590;28;20413;-73